Time;durP1;ratioP1;P1;durP2;ratioP2;P2;SDS_P1;SDS_P2;PMS_P1;PMS_P2;Temp;Humidity;BMP_temperature;BMP_pressure;BME280_temperature;BME280_humidity;BME280_pressure;Samples;Min_cycle;Max_cycle;Signal;HPM_P1;HPM_P2
2021/05/01 00:00:20;;;;;;;51.53;35.80;;;6.50;99.90;;;;;;5013587;28;20467;-79
2021/05/01 00:02:54;;;;;;;52.67;34.60;;;6.60;99.90;;;;;;5018199;28;21587;-80
2021/05/01 00:05:29;;;;;;;47.87;36.13;;;6.60;99.90;;;;;;5019616;28;21067;-79
2021/05/01 00:08:04;;;;;;;51.37;35.77;;;6.70;99.90;;;;;;5015912;28;20490;-79
2021/05/01 00:10:39;;;;;;;48.60;35.17;;;6.70;99.90;;;;;;4995955;28;20450;-79
2021/05/01 00:13:15;;;;;;;47.70;35.40;;;6.70;99.90;;;;;;5015291;28;20472;-79
2021/05/01 00:15:49;;;;;;;47.20;35.70;;;6.70;99.90;;;;;;5021979;28;20538;-79
2021/05/01 00:18:24;;;;;;;48.00;35.27;;;6.60;99.90;;;;;;5012839;28;20446;-79
2021/05/01 00:20:59;;;;;;;45.90;34.50;;;6.60;99.90;;;;;;5014796;28;20509;-79
2021/05/01 00:23:33;;;;;;;46.30;34.47;;;6.60;99.90;;;;;;5013131;28;20529;-79
2021/05/01 00:26:10;;;;;;;47.63;34.20;;;6.60;99.90;;;;;;5010051;28;20475;-79
2021/05/01 00:28:47;;;;;;;51.40;37.07;;;6.60;99.90;;;;;;5009417;28;20558;-79
2021/05/01 00:31:22;;;;;;;42.20;32.20;;;6.60;99.90;;;;;;5010145;28;20436;-80
2021/05/01 00:33:57;;;;;;;49.07;32.90;;;6.50;99.90;;;;;;5006481;28;20457;-81
2021/05/01 00:36:32;;;;;;;39.70;32.27;;;6.40;99.90;;;;;;4997980;28;20508;-80
2021/05/01 00:39:08;;;;;;;44.40;32.77;;;6.40;99.90;;;;;;5013513;28;20450;-80
2021/05/01 00:41:45;;;;;;;41.60;32.60;;;6.50;99.90;;;;;;5006890;28;20449;-78
2021/05/01 00:44:28;;;;;;;48.70;34.90;;;6.50;99.90;;;;;;5011593;28;20453;-81
2021/05/01 00:47:03;;;;;;;46.20;32.87;;;6.50;99.90;;;;;;5009095;28;20568;-80
2021/05/01 00:49:38;;;;;;;48.03;35.90;;;6.50;99.90;;;;;;5004094;28;20466;-80
2021/05/01 00:52:13;;;;;;;43.03;33.03;;;6.60;99.90;;;;;;5009853;28;20534;-79
2021/05/01 00:54:47;;;;;;;44.70;33.17;;;6.50;99.90;;;;;;5008418;28;20541;-79
2021/05/01 00:57:22;;;;;;;41.73;33.30;;;6.60;99.90;;;;;;5013747;28;20508;-80
2021/05/01 00:59:58;;;;;;;46.97;33.90;;;6.60;99.90;;;;;;4993571;28;20454;-80
2021/05/01 01:02:33;;;;;;;45.07;33.87;;;6.60;99.90;;;;;;5009885;28;20486;-79
2021/05/01 01:05:08;;;;;;;41.17;32.83;;;6.60;99.90;;;;;;5007579;28;20489;-79
2021/05/01 01:07:43;;;;;;;41.53;32.10;;;6.70;99.90;;;;;;5013516;28;20571;-79
2021/05/01 01:10:18;;;;;;;40.00;31.77;;;6.60;99.90;;;;;;5006502;28;20836;-79
2021/05/01 01:12:54;;;;;;;37.93;30.70;;;6.60;99.90;;;;;;5015543;28;20522;-79
2021/05/01 01:15:35;;;;;;;41.63;30.43;;;6.60;99.90;;;;;;5013308;28;20486;-80
2021/05/01 01:18:10;;;;;;;40.50;31.93;;;6.60;99.90;;;;;;5012337;28;20529;-80
2021/05/01 01:20:45;;;;;;;38.50;30.17;;;6.60;99.90;;;;;;5013739;28;20466;-79
2021/05/01 01:23:21;;;;;;;39.10;31.53;;;6.60;99.90;;;;;;5019048;28;20450;-79
2021/05/01 01:26:05;;;;;;;36.60;29.40;;;6.60;99.90;;;;;;5017903;28;21107;-79
2021/05/01 01:28:39;;;;;;;35.40;29.33;;;6.60;99.90;;;;;;5017781;28;20495;-79
2021/05/01 01:31:14;;;;;;;37.40;29.23;;;6.60;99.90;;;;;;5015505;28;20485;-79
2021/05/01 01:33:50;;;;;;;34.30;27.97;;;6.70;99.90;;;;;;5012359;28;20497;-79
2021/05/01 01:36:24;;;;;;;35.30;30.70;;;6.60;99.90;;;;;;5005837;28;20484;-79
2021/05/01 01:38:57;;;;;;;34.17;29.17;;;6.70;99.90;;;;;;5014124;28;20622;-79
2021/05/01 01:41:33;;;;;;;37.00;29.50;;;6.70;99.90;;;;;;5015689;28;20554;-79
2021/05/01 01:44:09;;;;;;;33.03;28.03;;;6.70;99.90;;;;;;5022019;28;20596;-80
2021/05/01 01:46:43;;;;;;;32.60;28.20;;;6.70;99.90;;;;;;5018323;28;20476;-79
2021/05/01 01:49:18;;;;;;;35.43;27.80;;;6.70;99.90;;;;;;5009990;28;20443;-80
2021/05/01 01:51:53;;;;;;;34.40;29.00;;;6.70;99.90;;;;;;5019194;28;20625;-80
2021/05/01 01:54:28;;;;;;;32.73;27.03;;;6.80;99.90;;;;;;5020231;28;20465;-79
2021/05/01 01:57:04;;;;;;;31.20;27.37;;;6.70;99.90;;;;;;5014169;28;20451;-79
2021/05/01 01:59:38;;;;;;;34.63;28.00;;;6.70;99.90;;;;;;5012364;28;20473;-79
2021/05/01 02:02:13;;;;;;;34.40;27.80;;;6.80;99.90;;;;;;5014352;28;20477;-79
2021/05/01 02:04:48;;;;;;;32.80;27.03;;;6.70;99.90;;;;;;5011002;28;20474;-80
2021/05/01 02:07:22;;;;;;;31.83;27.90;;;6.70;99.90;;;;;;5015714;28;20481;-78
2021/05/01 02:09:58;;;;;;;32.03;28.33;;;6.80;99.90;;;;;;5016799;28;20534;-78
2021/05/01 02:12:37;;;;;;;31.60;26.90;;;6.80;99.90;;;;;;5015297;28;20497;-79
2021/05/01 02:15:14;;;;;;;36.77;29.57;;;6.80;99.90;;;;;;5011777;28;20458;-80
2021/05/01 02:17:51;;;;;;;33.80;28.43;;;6.80;99.90;;;;;;5015733;28;20466;-81
2021/05/01 02:20:28;;;;;;;35.00;28.70;;;6.80;99.90;;;;;;5026339;28;20450;-81
2021/05/01 02:23:03;;;;;;;40.63;30.17;;;6.80;99.90;;;;;;5016181;28;20454;-79
2021/05/01 02:25:39;;;;;;;32.57;29.03;;;6.80;99.90;;;;;;5011306;28;20499;-81
2021/05/01 02:28:16;;;;;;;34.50;28.90;;;6.80;99.90;;;;;;5019143;28;20519;-81
2021/05/01 02:30:51;;;;;;;36.93;29.37;;;6.80;99.90;;;;;;5007045;28;20456;-81
2021/05/01 02:33:26;;;;;;;35.10;28.93;;;6.80;99.90;;;;;;5014595;28;20489;-80
2021/05/01 02:36:01;;;;;;;33.40;28.47;;;6.80;99.90;;;;;;5020322;28;20458;-79
2021/05/01 02:38:36;;;;;;;37.30;28.83;;;6.70;99.90;;;;;;5016066;28;20477;-80
2021/05/01 02:41:12;;;;;;;35.97;29.57;;;6.70;99.90;;;;;;5016257;28;20474;-78
2021/05/01 02:43:46;;;;;;;34.87;28.47;;;6.70;99.90;;;;;;5018906;28;20477;-79
2021/05/01 02:46:21;;;;;;;34.40;28.47;;;6.70;99.90;;;;;;5016639;28;20626;-78
2021/05/01 02:48:55;;;;;;;37.47;30.50;;;6.80;99.90;;;;;;5012086;28;20439;-78
2021/05/01 02:51:30;;;;;;;31.10;26.07;;;6.80;99.90;;;;;;5008476;28;20459;-79
2021/05/01 02:54:05;;;;;;;34.50;27.80;;;6.80;99.90;;;;;;5013877;28;20501;-79
2021/05/01 02:56:40;;;;;;;33.80;27.87;;;6.70;99.90;;;;;;5007993;28;20468;-79
2021/05/01 02:59:15;;;;;;;29.83;25.93;;;6.70;99.90;;;;;;5008177;28;20475;-78
2021/05/01 03:01:49;;;;;;;33.50;25.70;;;6.70;99.90;;;;;;5012104;28;21191;-79
2021/05/01 03:04:24;;;;;;;30.00;26.47;;;6.70;99.90;;;;;;5008120;28;20524;-79
2021/05/01 03:06:59;;;;;;;28.40;25.30;;;6.80;99.90;;;;;;5016365;28;20463;-79
2021/05/01 03:09:34;;;;;;;30.30;26.60;;;6.80;99.90;;;;;;5010083;28;20573;-82
2021/05/01 03:12:10;;;;;;;34.23;26.83;;;6.80;99.90;;;;;;5015095;28;20455;-79
2021/05/01 03:14:45;;;;;;;33.97;28.93;;;6.90;99.90;;;;;;5011555;28;20510;-80
2021/05/01 03:17:20;;;;;;;33.47;27.93;;;6.90;99.90;;;;;;5012367;28;20497;-79
2021/05/01 03:19:55;;;;;;;35.13;27.40;;;6.90;99.90;;;;;;5005550;28;20447;-82
2021/05/01 03:22:30;;;;;;;33.93;28.70;;;6.90;99.90;;;;;;5012380;28;20443;-79
2021/05/01 03:25:06;;;;;;;31.10;26.33;;;6.90;99.90;;;;;;5011177;28;20479;-79
2021/05/01 03:27:42;;;;;;;33.37;28.00;;;6.90;99.90;;;;;;5009001;28;20460;-79
2021/05/01 03:30:25;;;;;;;30.50;26.20;;;6.90;99.90;;;;;;5013369;28;20494;-78
2021/05/01 03:33:00;;;;;;;33.90;27.17;;;6.90;99.90;;;;;;5015972;28;20870;-78
2021/05/01 03:35:34;;;;;;;34.50;29.00;;;7.00;99.90;;;;;;5011256;28;20487;-79
2021/05/01 03:38:09;;;;;;;30.37;26.67;;;7.00;99.90;;;;;;5016224;28;20509;-80
2021/05/01 03:40:49;;;;;;;33.13;25.30;;;7.00;99.90;;;;;;5014209;28;20482;-80
2021/05/01 03:43:22;;;;;;;29.43;26.00;;;7.00;99.90;;;;;;5008467;28;20466;-79
2021/05/01 03:45:58;;;;;;;32.53;26.70;;;7.00;99.90;;;;;;5017096;28;20459;-82
2021/05/01 03:48:33;;;;;;;31.10;26.27;;;7.00;99.90;;;;;;5018477;28;20434;-80
2021/05/01 03:51:08;;;;;;;29.50;26.30;;;7.00;99.90;;;;;;5008280;28;20439;-80
2021/05/01 03:53:42;;;;;;;28.07;25.10;;;7.00;99.90;;;;;;5013875;28;21302;-80
2021/05/01 03:56:17;;;;;;;30.03;26.00;;;7.00;99.90;;;;;;5009492;28;20873;-80
2021/05/01 03:58:52;;;;;;;29.97;26.77;;;6.90;99.90;;;;;;5019039;28;20470;-81
2021/05/01 04:01:27;;;;;;;29.57;25.00;;;6.90;99.90;;;;;;5030780;28;20447;-81
2021/05/01 04:04:11;;;;;;;30.53;26.23;;;7.00;99.90;;;;;;5022440;28;20444;-81
2021/05/01 04:06:45;;;;;;;31.73;26.93;;;7.00;99.90;;;;;;5029559;28;20523;-83
2021/05/01 04:09:20;;;;;;;34.43;27.40;;;7.00;99.90;;;;;;5018645;28;20536;-80
2021/05/01 04:11:55;;;;;;;29.53;26.23;;;7.00;99.90;;;;;;5007905;28;21255;-80
2021/05/01 04:14:30;;;;;;;30.60;25.90;;;7.10;99.90;;;;;;5021712;28;20452;-80
2021/05/01 04:17:05;;;;;;;30.83;24.90;;;7.10;99.90;;;;;;5016084;28;20988;-80
2021/05/01 04:19:40;;;;;;;30.43;25.83;;;7.10;99.90;;;;;;5009939;28;20439;-80
2021/05/01 04:22:14;;;;;;;30.60;25.63;;;7.20;99.90;;;;;;5008238;28;20451;-79
2021/05/01 04:24:49;;;;;;;29.90;25.30;;;7.30;99.90;;;;;;5006879;28;20531;-80
2021/05/01 04:27:24;;;;;;;30.93;27.63;;;7.30;99.90;;;;;;5012442;28;20524;-80
2021/05/01 04:30:06;;;;;;;30.13;26.83;;;7.40;99.90;;;;;;5005249;28;20546;-82
2021/05/01 04:32:41;;;;;;;28.70;25.60;;;7.40;99.90;;;;;;5013506;28;20454;-81
2021/05/01 04:35:17;;;;;;;27.10;24.20;;;7.50;99.90;;;;;;4991898;28;20467;-80
2021/05/01 04:37:52;;;;;;;30.97;27.43;;;7.70;98.40;;;;;;5009240;28;20479;-79
2021/05/01 04:40:26;;;;;;;31.23;25.90;;;7.80;96.40;;;;;;5009928;28;20498;-79
2021/05/01 04:43:03;;;;;;;27.37;24.47;;;7.90;94.20;;;;;;5014610;28;20486;-79
2021/05/01 04:45:39;;;;;;;25.37;22.67;;;7.80;93.60;;;;;;5013595;28;20864;-79
2021/05/01 04:48:15;;;;;;;25.57;22.90;;;7.80;93.30;;;;;;5013644;28;20474;-78
2021/05/01 04:50:50;;;;;;;28.10;23.40;;;7.80;94.10;;;;;;5007739;28;21140;-79
2021/05/01 04:53:26;;;;;;;28.57;25.57;;;7.70;94.10;;;;;;5009221;28;20461;-80
2021/05/01 04:56:00;;;;;;;26.70;23.73;;;7.60;94.30;;;;;;5011554;28;20474;-79
2021/05/01 04:58:35;;;;;;;26.90;23.67;;;7.70;94.60;;;;;;5007019;28;20455;-79
2021/05/01 05:01:11;;;;;;;28.57;24.87;;;7.80;94.40;;;;;;5012014;28;20541;-81
2021/05/01 05:03:46;;;;;;;27.40;24.03;;;7.80;95.00;;;;;;5013157;28;20485;-79
2021/05/01 05:06:21;;;;;;;27.70;24.50;;;7.80;94.80;;;;;;5009400;28;20512;-79
2021/05/01 05:08:55;;;;;;;29.13;25.70;;;7.60;95.30;;;;;;5014338;28;20827;-79
2021/05/01 05:11:31;;;;;;;27.33;24.40;;;7.60;96.10;;;;;;5005570;28;20966;-79
2021/05/01 05:14:05;;;;;;;28.70;25.13;;;7.70;96.40;;;;;;5013259;28;20463;-79
2021/05/01 05:16:41;;;;;;;28.73;25.63;;;7.70;96.40;;;;;;5008293;28;20996;-80
2021/05/01 05:19:16;;;;;;;27.20;24.20;;;7.70;94.20;;;;;;5015357;28;20447;-80
2021/05/01 05:21:51;;;;;;;29.13;24.83;;;7.70;95.30;;;;;;5005204;28;20588;-80
2021/05/01 05:24:25;;;;;;;28.97;25.87;;;7.70;95.30;;;;;;5011687;28;20464;-79
2021/05/01 05:27:00;;;;;;;27.67;24.67;;;8.00;95.20;;;;;;5007877;28;20536;-80
2021/05/01 05:29:35;;;;;;;28.00;25.00;;;8.20;92.70;;;;;;5012650;28;20455;-80
2021/05/01 05:32:11;;;;;;;28.90;24.93;;;8.40;91.80;;;;;;5010640;28;20490;-80
2021/05/01 05:34:46;;;;;;;28.37;25.30;;;8.70;90.90;;;;;;5006144;28;20512;-79
2021/05/01 05:37:21;;;;;;;26.70;23.90;;;9.30;88.80;;;;;;5010731;28;20539;-81
2021/05/01 05:40:01;;;;;;;27.57;24.63;;;9.40;86.80;;;;;;4994169;28;20919;-81
2021/05/01 05:42:36;;;;;;;25.47;22.77;;;9.90;83.30;;;;;;5011935;28;20487;-79
2021/05/01 05:45:13;;;;;;;25.53;22.80;;;9.90;82.20;;;;;;5015764;28;20462;-80
2021/05/01 05:47:50;;;;;;;27.03;24.23;;;9.70;82.00;;;;;;5005557;28;20495;-80
2021/05/01 05:50:25;;;;;;;32.20;23.90;;;9.80;82.60;;;;;;5010301;28;20459;-80
2021/05/01 05:53:00;;;;;;;25.47;22.53;;;9.50;82.50;;;;;;5006412;28;20458;-80
2021/05/01 05:55:34;;;;;;;30.10;23.83;;;9.40;82.90;;;;;;5008677;28;21052;-79
2021/05/01 05:58:09;;;;;;;25.53;22.60;;;9.20;84.10;;;;;;5005166;28;20451;-80
2021/05/01 06:00:45;;;;;;;27.27;23.90;;;9.20;84.90;;;;;;5011917;28;20535;-79
2021/05/01 06:03:22;;;;;;;27.60;24.70;;;9.40;85.00;;;;;;5007310;28;20463;-80
2021/05/01 06:06:01;;;;;;;29.33;24.90;;;9.70;82.70;;;;;;4999898;28;20511;-80
2021/05/01 06:08:38;;;;;;;27.40;24.60;;;9.50;83.30;;;;;;5012741;28;20868;-80
2021/05/01 06:11:17;;;;;;;26.10;23.30;;;9.40;83.20;;;;;;5012826;28;20478;-80
2021/05/01 06:13:54;;;;;;;26.93;24.10;;;9.40;83.30;;;;;;5015720;28;20456;-79
2021/05/01 06:16:29;;;;;;;26.77;24.00;;;9.30;83.50;;;;;;5030612;28;20451;-80
2021/05/01 06:19:05;;;;;;;31.47;24.63;;;9.10;85.60;;;;;;5016789;28;20455;-80
2021/05/01 06:21:41;;;;;;;26.00;23.33;;;9.10;84.60;;;;;;5014787;28;20493;-80
2021/05/01 06:24:16;;;;;;;28.50;25.50;;;9.20;84.60;;;;;;5014218;28;20459;-80
2021/05/01 06:26:51;;;;;;;27.90;24.93;;;9.10;85.20;;;;;;5007028;28;20488;-80
2021/05/01 06:29:26;;;;;;;26.40;23.50;;;9.20;85.10;;;;;;5010923;28;20582;-80
2021/05/01 06:32:02;;;;;;;35.33;24.97;;;9.20;83.80;;;;;;5002446;28;20486;-79
2021/05/01 06:34:38;;;;;;;26.33;23.53;;;9.40;85.20;;;;;;5015935;28;20471;-80
2021/05/01 06:37:13;;;;;;;27.27;24.37;;;9.70;83.10;;;;;;5021417;28;20436;-80
2021/05/01 06:39:46;;;;;;;28.63;25.60;;;9.60;82.50;;;;;;5021128;28;20459;-80
2021/05/01 06:42:27;;;;;;;29.20;25.60;;;8.90;85.80;;;;;;5017734;28;20475;-80
2021/05/01 06:45:05;;;;;;;31.03;27.40;;;9.00;87.80;;;;;;5021761;28;20452;-79
2021/05/01 06:47:47;;;;;;;29.17;25.23;;;9.10;85.60;;;;;;5015285;28;20467;-79
2021/05/01 06:50:24;;;;;;;29.80;26.13;;;9.20;83.80;;;;;;5021999;28;21149;-79
2021/05/01 06:53:01;;;;;;;26.90;24.13;;;10.00;81.90;;;;;;5025472;28;20451;-80
2021/05/01 06:55:36;;;;;;;27.40;24.57;;;10.10;79.60;;;;;;5022428;28;20456;-80
2021/05/01 06:58:12;;;;;;;29.90;26.77;;;10.10;79.20;;;;;;5025998;28;20478;-81
2021/05/01 07:00:50;;;;;;;28.37;25.37;;;9.80;80.10;;;;;;5016621;28;20468;-79
2021/05/01 07:03:28;;;;;;;31.80;27.10;;;10.00;79.80;;;;;;5021654;28;20487;-80
2021/05/01 07:06:04;;;;;;;28.03;25.10;;;10.30;79.90;;;;;;5010660;28;20469;-80
2021/05/01 07:08:39;;;;;;;27.13;24.20;;;10.30;77.50;;;;;;5015551;28;20476;-80
2021/05/01 07:11:14;;;;;;;29.87;25.70;;;10.10;76.60;;;;;;5013786;28;21044;-79
2021/05/01 07:13:59;;;;;;;29.10;26.00;;;9.90;79.00;;;;;;5012214;28;20874;-79
2021/05/01 07:16:33;;;;;;;30.87;27.50;;;9.90;80.90;;;;;;5012042;28;20476;-80
2021/05/01 07:19:10;;;;;;;28.80;25.80;;;9.90;78.20;;;;;;5016867;28;20470;-79
2021/05/01 07:21:46;;;;;;;27.37;24.47;;;9.90;77.50;;;;;;5010187;28;20459;-79
2021/05/01 07:24:20;;;;;;;29.53;25.40;;;10.20;75.80;;;;;;5013191;28;20456;-82
2021/05/01 07:26:56;;;;;;;27.30;24.50;;;11.00;74.90;;;;;;5019394;28;20467;-80
2021/05/01 07:29:35;;;;;;;26.93;24.07;;;10.70;75.00;;;;;;5011222;28;20460;-80
2021/05/01 07:32:12;;;;;;;28.00;25.07;;;10.40;75.70;;;;;;5008886;28;21051;-79
2021/05/01 07:35:06;;;;;;;27.20;24.27;;;10.30;75.30;;;;;;5008867;28;20492;-79
2021/05/01 07:37:46;;;;;;;28.67;25.67;;;10.30;76.20;;;;;;5008812;28;20763;-80
2021/05/01 07:40:28;;;;;;;28.23;25.30;;;10.90;75.70;;;;;;5010017;28;20515;-79
2021/05/01 07:43:03;;;;;;;27.13;24.23;;;10.70;75.10;;;;;;5009207;28;20535;-81
2021/05/01 07:45:39;;;;;;;27.43;24.63;;;10.90;74.60;;;;;;5010714;28;20459;-81
2021/05/01 07:48:16;;;;;;;29.13;26.13;;;10.90;75.40;;;;;;5011717;28;20483;-81
2021/05/01 07:50:52;;;;;;;27.80;24.70;;;11.00;74.40;;;;;;5015202;28;20490;-80
2021/05/01 07:53:28;;;;;;;26.30;23.80;;;10.60;75.00;;;;;;5014408;28;21038;-82
2021/05/01 07:56:00;;;;;;;26.80;24.10;;;11.40;74.20;;;;;;5012292;28;20459;-80
2021/05/01 07:58:35;;;;;;;27.23;24.43;;;10.50;75.30;;;;;;5008914;28;20522;-81
2021/05/01 08:01:10;;;;;;;27.47;24.70;;;10.40;74.10;;;;;;5016408;28;20452;-79
2021/05/01 08:03:45;;;;;;;26.90;24.07;;;10.70;74.40;;;;;;5015450;28;20476;-81
2021/05/01 08:06:20;;;;;;;24.80;22.40;;;10.50;73.70;;;;;;5017665;28;20463;-80
2021/05/01 08:08:56;;;;;;;27.23;24.23;;;10.30;74.60;;;;;;5018357;28;20517;-80
2021/05/01 08:11:31;;;;;;;26.97;24.17;;;10.80;74.40;;;;;;5016682;28;20467;-81
2021/05/01 08:14:06;;;;;;;25.07;22.57;;;11.20;73.70;;;;;;5004544;28;20455;-80
2021/05/01 08:16:41;;;;;;;25.27;22.57;;;11.00;74.60;;;;;;5017986;28;20451;-81
2021/05/01 08:19:17;;;;;;;26.50;23.90;;;10.70;73.80;;;;;;5014759;28;20455;-80
2021/05/01 08:21:51;;;;;;;25.50;22.93;;;11.60;74.20;;;;;;5020300;28;20451;-82
2021/05/01 08:24:27;;;;;;;23.67;21.37;;;12.30;72.00;;;;;;5023792;28;20448;-80
2021/05/01 08:27:02;;;;;;;23.60;21.30;;;12.60;71.40;;;;;;5022005;28;20483;-80
2021/05/01 08:29:36;;;;;;;23.87;21.60;;;11.40;71.30;;;;;;5024069;28;20459;-80
2021/05/01 08:32:13;;;;;;;24.10;21.70;;;11.20;72.90;;;;;;5024507;28;20446;-80
2021/05/01 08:34:48;;;;;;;24.27;21.87;;;10.60;72.40;;;;;;5024344;28;20452;-81
2021/05/01 08:37:23;;;;;;;24.83;22.23;;;10.50;72.60;;;;;;5022585;28;20457;-82
2021/05/01 08:40:00;;;;;;;23.27;21.00;;;11.40;73.60;;;;;;5024714;28;20463;-80
2021/05/01 08:42:34;;;;;;;25.30;22.70;;;11.10;73.60;;;;;;5022354;28;20791;-81
2021/05/01 08:45:10;;;;;;;23.17;20.90;;;11.40;73.00;;;;;;5019473;28;20475;-80
2021/05/01 08:47:47;;;;;;;24.00;21.70;;;11.40;71.70;;;;;;5005641;28;20472;-80
2021/05/01 08:50:50;;;;;;;24.47;21.87;;;11.20;71.70;;;;;;5015881;28;20440;-80
2021/05/01 08:53:25;;;;;;;27.27;24.50;;;11.30;72.40;;;;;;5006370;28;20493;-80
2021/05/01 08:56:00;;;;;;;25.30;22.70;;;11.60;72.80;;;;;;5007997;28;20443;-81
2021/05/01 08:58:35;;;;;;;25.77;23.27;;;11.50;72.30;;;;;;5003767;28;20566;-81
2021/05/01 09:01:12;;;;;;;24.63;22.13;;;11.60;71.50;;;;;;5009899;28;20451;-80
2021/05/01 09:03:47;;;;;;;25.93;23.33;;;11.60;71.50;;;;;;5006761;28;20477;-79
2021/05/01 09:06:22;;;;;;;24.83;22.30;;;12.40;70.80;;;;;;5010629;28;20590;-81
2021/05/01 09:09:07;;;;;;;23.97;21.67;;;11.20;70.90;;;;;;5014736;28;20439;-80
2021/05/01 09:11:44;;;;;;;24.30;21.77;;;11.70;71.00;;;;;;5012742;28;20468;-80
2021/05/01 09:14:25;;;;;;;26.77;24.27;;;12.30;69.60;;;;;;5011608;28;20456;-80
2021/05/01 09:17:10;;;;;;;27.47;24.70;;;12.30;70.50;;;;;;5021616;28;20440;-80
2021/05/01 09:19:46;;;;;;;27.47;24.67;;;12.00;70.30;;;;;;5011277;28;21275;-81
2021/05/01 09:22:21;;;;;;;26.67;24.00;;;12.60;69.80;;;;;;5017706;28;20494;-81
2021/05/01 09:25:08;;;;;;;27.33;24.73;;;12.20;69.00;;;;;;5013139;28;20482;-80
2021/05/01 09:27:44;;;;;;;27.43;24.57;;;13.50;68.90;;;;;;5013470;28;20468;-81
2021/05/01 09:30:20;;;;;;;26.27;23.50;;;13.40;69.20;;;;;;5013706;28;20457;-81
2021/05/01 09:32:55;;;;;;;25.87;23.33;;;12.40;70.00;;;;;;5001521;28;20482;-80
2021/05/01 09:35:30;;;;;;;25.60;23.00;;;12.10;70.00;;;;;;4989133;28;20555;-82
2021/05/01 09:38:05;;;;;;;26.80;24.03;;;12.10;71.60;;;;;;5003567;28;20490;-80
2021/05/01 09:40:48;;;;;;;25.67;23.10;;;12.00;70.30;;;;;;5019550;28;20935;-80
2021/05/01 09:43:24;;;;;;;25.63;23.07;;;12.40;70.80;;;;;;5027144;28;20460;-80
2021/05/01 09:45:58;;;;;;;26.57;23.80;;;12.70;69.60;;;;;;5025889;28;20440;-81
2021/05/01 09:48:33;;;;;;;25.83;23.30;;;12.20;70.10;;;;;;5024803;28;20462;-79
2021/05/01 09:51:14;;;;;;;23.40;21.10;;;12.10;70.30;;;;;;5013923;28;20448;-80
2021/05/01 09:53:50;;;;;;;21.63;19.33;;;12.10;68.30;;;;;;4990698;28;20444;-78
2021/05/01 09:56:26;;;;;;;22.30;20.10;;;12.00;67.00;;;;;;5002616;28;20467;-80
2021/05/01 09:59:02;;;;;;;22.83;20.63;;;13.30;67.80;;;;;;5007470;28;20435;-80
2021/05/01 10:01:37;;;;;;;22.90;20.80;;;13.80;66.80;;;;;;5003067;28;20491;-79
2021/05/01 10:04:21;;;;;;;22.33;20.27;;;13.30;66.20;;;;;;5007349;28;20840;-82
2021/05/01 10:06:59;;;;;;;24.10;21.70;;;13.30;67.40;;;;;;5008625;28;20543;-81
2021/05/01 10:09:35;;;;;;;24.23;21.83;;;13.30;67.60;;;;;;5013056;28;20490;-82
2021/05/01 10:12:14;;;;;;;21.67;19.57;;;13.50;67.80;;;;;;5007521;28;20452;-83
2021/05/01 10:14:54;;;;;;;23.80;21.60;;;13.30;66.80;;;;;;5013085;28;20502;-84
2021/05/01 10:17:31;;;;;;;24.20;21.90;;;13.40;67.80;;;;;;5014944;28;20449;-82
2021/05/01 10:20:08;;;;;;;23.13;20.90;;;12.90;67.60;;;;;;5019251;28;20490;-83
2021/05/01 10:22:44;;;;;;;24.87;22.37;;;13.20;68.70;;;;;;5014459;28;20452;-82
2021/05/01 10:25:29;;;;;;;25.23;22.53;;;12.60;68.10;;;;;;5010209;28;20550;-81
2021/05/01 10:28:04;;;;;;;23.57;21.00;;;12.10;68.70;;;;;;5017231;28;20507;-82
2021/05/01 10:30:42;;;;;;;26.47;23.77;;;12.40;68.90;;;;;;5019420;28;20447;-84
2021/05/01 10:33:31;;;;;;;24.07;21.57;;;12.20;69.30;;;;;;5019017;28;20451;-85
2021/05/01 10:36:12;;;;;;;24.43;21.70;;;13.10;68.40;;;;;;5022326;28;20697;-82
2021/05/01 10:38:47;;;;;;;24.80;22.23;;;13.80;66.60;;;;;;5020872;28;20465;-84
2021/05/01 10:41:24;;;;;;;22.23;20.13;;;12.80;67.20;;;;;;5016411;28;20440;-82
2021/05/01 10:44:00;;;;;;;22.00;19.80;;;13.60;67.60;;;;;;5022787;28;20459;-82
2021/05/01 10:46:39;;;;;;;22.67;20.27;;;13.70;66.80;;;;;;5020971;28;20517;-82
2021/05/01 10:49:15;;;;;;;22.33;19.73;;;14.00;65.60;;;;;;5016414;28;20532;-82
2021/05/01 10:51:56;;;;;;;22.00;19.90;;;14.20;65.70;;;;;;5018919;28;20452;-87
2021/05/01 10:54:32;;;;;;;23.90;21.07;;;14.00;65.10;;;;;;5012185;28;20460;-83
2021/05/01 10:57:18;;;;;;;21.73;19.53;;;13.50;64.80;;;;;;5021720;28;20457;-83
2021/05/01 11:00:02;;;;;;;22.83;20.50;;;14.10;64.00;;;;;;5015882;28;20444;-87
2021/05/01 11:02:40;;;;;;;22.07;19.83;;;14.70;64.20;;;;;;5019285;28;20456;-83
2021/05/01 11:05:17;;;;;;;20.47;18.47;;;16.10;63.20;;;;;;5018678;28;20446;-82
2021/05/01 11:08:02;;;;;;;21.53;19.43;;;14.40;60.50;;;;;;5023168;28;20483;-86
2021/05/01 11:10:40;;;;;;;20.67;18.57;;;14.60;62.10;;;;;;5021556;28;20559;-83
2021/05/01 11:13:18;;;;;;;18.87;16.97;;;16.00;60.10;;;;;;5014627;28;20453;-85
2021/05/01 11:15:59;;;;;;;19.50;17.70;;;14.80;58.70;;;;;;5023593;28;20444;-83
2021/05/01 11:18:37;;;;;;;20.80;18.70;;;14.60;60.70;;;;;;5024302;28;20506;-91
2021/05/01 11:21:14;;;;;;;20.30;18.03;;;14.10;61.40;;;;;;5016885;28;20444;-84
2021/05/01 11:26:44;;;;;;;18.95;17.25;;;14.60;61.20;;;;;;5003161;28;20459;-76
2021/05/01 11:29:20;;;;;;;19.05;17.45;;;14.50;59.50;;;;;;5010893;28;20454;-78
2021/05/01 11:31:57;;;;;;;19.97;18.17;;;14.20;60.50;;;;;;5011925;28;20277;-81
2021/05/01 11:34:35;;;;;;;18.90;17.20;;;14.90;61.70;;;;;;5012451;28;20522;-79
2021/05/01 11:37:13;;;;;;;17.87;16.23;;;14.40;61.30;;;;;;5011164;28;20445;-79
2021/05/01 11:43:06;;;;;;;16.50;15.03;;;14.40;60.20;;;;;;5008002;28;20947;-80
2021/05/01 11:45:49;;;;;;;17.10;15.60;;;15.20;61.10;;;;;;5016187;28;20479;-84
2021/05/01 11:48:34;;;;;;;18.77;16.98;;;14.00;60.00;;;;;;5014758;28;20451;-78
2021/05/01 11:51:13;;;;;;;18.97;17.07;;;14.40;60.70;;;;;;5009982;28;20206;-80
2021/05/01 11:53:51;;;;;;;17.90;16.27;;;14.80;60.60;;;;;;5007276;28;20464;-78
2021/05/01 11:56:32;;;;;;;17.60;16.00;;;15.10;60.10;;;;;;5008454;28;20849;-81
2021/05/01 11:59:14;;;;;;;18.33;16.73;;;14.60;59.40;;;;;;5006379;28;20454;-78
2021/05/01 12:02:05;;;;;;;17.10;15.43;;;14.50;60.50;;;;;;5004970;28;20469;-80
2021/05/01 12:05:02;;;;;;;16.43;14.93;;;14.90;60.70;;;;;;5012744;28;20460;-83
2021/05/01 12:07:48;;;;;;;15.57;14.07;;;14.90;60.70;;;;;;4988386;28;20485;-80
2021/05/01 12:10:25;;;;;;;17.83;16.17;;;14.80;59.10;;;;;;5011993;28;21025;-80
2021/05/01 12:13:06;;;;;;;17.20;15.67;;;14.80;59.50;;;;;;5010743;28;20475;-79
2021/05/01 12:15:39;;;;;;;16.73;15.13;;;15.40;59.90;;;;;;5010956;28;20541;-79
2021/05/01 12:18:14;;;;;;;15.00;13.60;;;15.40;59.80;;;;;;5008694;28;20452;-81
2021/05/01 12:20:54;;;;;;;16.80;15.20;;;15.60;59.40;;;;;;5011432;28;20816;-78
2021/05/01 12:23:43;;;;;;;16.53;15.07;;;14.80;60.00;;;;;;5008553;28;20530;-78
2021/05/01 12:26:42;;;;;;;16.43;14.83;;;13.80;59.70;;;;;;5013241;28;20485;-82
2021/05/01 12:29:42;;;;;;;14.90;13.53;;;13.20;59.60;;;;;;5013934;28;20453;-81
2021/05/01 12:32:32;;;;;;;16.37;14.77;;;13.80;60.40;;;;;;5016145;28;20467;-81
2021/05/01 12:35:15;;;;;;;16.70;14.90;;;14.20;60.50;;;;;;5016597;28;20503;-81
2021/05/01 12:41:21;;;;;;;14.97;13.67;;;14.40;60.70;;;;;;5019489;28;20574;-80
2021/05/01 12:43:59;;;;;;;15.30;13.90;;;14.30;60.30;;;;;;5013277;28;20488;-77
2021/05/01 12:46:58;;;;;;;15.40;14.00;;;13.70;59.90;;;;;;5014308;28;20475;-79
2021/05/01 12:49:40;;;;;;;15.90;14.40;;;13.60;61.60;;;;;;5010585;28;20506;-81
2021/05/01 12:52:23;;;;;;;15.37;13.87;;;13.70;61.30;;;;;;5009100;28;20448;-79
2021/05/01 12:55:08;;;;;;;14.60;13.20;;;13.30;61.50;;;;;;5023041;28;20448;-78
2021/05/01 12:57:53;;;;;;;15.20;13.70;;;13.80;62.00;;;;;;5014855;28;20547;-83
2021/05/01 13:00:32;;;;;;;15.30;13.97;;;13.40;60.40;;;;;;5010881;28;20484;-78
2021/05/01 13:03:19;;;;;;;15.77;14.27;;;13.40;61.70;;;;;;5017954;28;20507;-78
2021/05/01 13:06:05;;;;;;;15.80;14.37;;;13.80;62.20;;;;;;5009459;28;20982;-79
2021/05/01 13:08:43;;;;;;;15.50;14.03;;;13.20;61.50;;;;;;5013445;28;20819;-78
2021/05/01 13:11:19;;;;;;;15.40;13.90;;;13.50;62.10;;;;;;5013128;28;20443;-79
2021/05/01 13:14:14;;;;;;;17.17;15.47;;;12.90;62.00;;;;;;5006259;28;20840;-78
2021/05/01 13:17:12;;;;;;;16.00;14.30;;;12.90;62.60;;;;;;5003734;28;20451;-78
2021/05/01 13:20:11;;;;;;;15.30;13.90;;;12.50;63.50;;;;;;5007014;28;20463;-81
2021/05/01 13:22:53;;;;;;;14.27;12.80;;;13.40;63.60;;;;;;5017127;28;20451;-83
2021/05/01 13:25:28;;;;;;;15.13;13.73;;;14.20;62.30;;;;;;5011320;28;20491;-77
2021/05/01 13:28:10;;;;;;;14.80;13.40;;;14.40;62.30;;;;;;5010750;28;20820;-76
2021/05/01 13:30:46;;;;;;;14.47;13.23;;;14.00;61.30;;;;;;5008838;28;20460;-81
2021/05/01 13:33:21;;;;;;;13.33;12.13;;;14.10;61.70;;;;;;5005910;28;20540;-82